Marion, OH (43302)

10:48 PM EST on January 22, 2017 (GMT -0500)
ME8138 | | Change Station
Active Advisory: Small Craft Advisory

Elev 977 ft 40.57 °N, 83.11 °W | Updated 21 minutes ago

Overcast
Overcast
52.0 °F
Feels Like 52.0 °F
N
4.0
Wind Variable Wind from NNE
Gusts 9.0 mph

Today
High -- | Low -- °F
--% Chance of Precip.
Yesterday
High -- | Low -- °F
Precip. -- in
Pressure 29.55 in
Visibility 7.0 miles
Clouds Mostly Cloudy 7500 ft
Overcast 10000 ft
Dew Point 49 °F
Humidity 90%
Rainfall 0.00 in
Snow Depth Not available.
7:50 AM 5:38 PM
Waning Crescent, 21% visible
METAR KMNN 230253Z AUTO 03009KT 7SM BKN075 OVC100 11/09 A2954 RMK AO2 SLP004 T01110089 51001 $
Pressure 29.55 in
Visibility 7.0 miles
Clouds Mostly Cloudy 7500 ft
Overcast 10000 ft
Dew Point 49 °F
Humidity 90%
Rainfall 0.00 in
Snow Depth Not available.
7:50 AM 5:38 PM
Waning Crescent, 21% visible
METAR KMNN 230253Z AUTO 03009KT 7SM BKN075 OVC100 11/09 A2954 RMK AO2 SLP004 T01110089 51001 $

Get Your Daily Forecast Email!

Thanks for signing up!

Be on the lookout for a verification email in your inbox.

You'll start receiving the daily forecast at 8 AM.

×

10-Day Weather Forecast

Almanac

Astronomy

Jan. 22, 2017 Rise Set
Actual Time
Civil Twilight
Nautical Twilight
Astronomical Twilight
Moon
Length of Visible Light
Length of Day
Tomorrow will be .
, % of the Moon is Illuminated

Today's Extremes

State Highs State Lows

Community

WunderPhotos

Upload Photos

1,962,540 photos uploaded!

WunderBlog® & News

Nearby

Air Quality

  Air Quality AQ Index Pollutant
Not available.

Snow Depth

Station Depth Elevation

Earthquake Activity

City Distance Mag. Time & Date
Minimum magnitude displayed is 2.5.

Coastal Water Temperatures

Place Temperature

Stations

Nearby Weather Stations

Station Location Temp. Windchill Dew Point Humidity Wind Precip. Elev Updated Type
                   

Watches & Warnings

Small Craft Advisory
Issued: 9:40 PM EST Jan. 22, 2017 – National Weather Service

... Small Craft Advisory remains in effect from 4 am Monday to
4 am EST Tuesday...

* winds... northeast 10 to 20 knots with gusts up to 25 knots.

* Waves... 3 to 5 feet.

Precautionary/preparedness actions...

A Small Craft Advisory is issued when waves of 4 feet or more are
expected or wind speeds reach 21 to 33 knots which may produce
hazardous conditions to small craft. Inexperienced mariners...
especially those operating smaller vessels... should stay in port
during these conditions.